Tatsuharu Maru — JD3984 — position and weather

sailwx.info

Track history (hours):
 
Tides and Currents Weather Stations Pressure Air Temp Water Temp Dewpoint Dewpoint Depression Visibility Wind Speed Wind Dir Waves Ship Positions

Tatsuharu Maru

Last reported at 2017-Dec-17 06:14 UTC. Time now 2017-Dec-17 17:46 UTC.
Position N 34°43' E 134°49'.

Length 75 m; draft 4.2 m.

Type: Cargo ship. MMSI: 431007656.

Date/timePositionNaut miles runAvg speedWind from/ knotsBaromVisibWave heightAir tempDewpointWater temp
2017-Dec-17 06:14N 34°43' E 134°49'2 8.4
2017-Dec-17 06:00N 34°41' E 134°49'2 2.8
2017-Dec-17 05:25N 34°42' E 134°50'0 0.0
2017-Dec-17 04:55N 34°42' E 134°50'0 0.0
2017-Dec-17 04:28N 34°42' E 134°50'1 1.3
2017-Dec-17 04:00N 34°42' E 134°50'4 8.2
2017-Dec-17 03:30N 34°38' E 134°53'4 8.4
2017-Dec-17 03:00N 34°38' E 134°58'5 9.9
2017-Dec-17 02:30N 34°36' E 135°03'5 9.6
2017-Dec-17 02:00N 34°31' E 135°04'611.3
2017-Dec-17 01:30N 34°26' E 135°02'611.5
2017-Dec-17 01:00N 34°20' E 135°00'611.4
2017-Dec-17 00:30N 34°15' E 134°60'511.0
2017-Dec-17 00:00N 34°09' E 135°01'510.0
2017-Dec-16 23:30N 34°04' E 135°01'5 9.7
2017-Dec-16 22:59N 33°59' E 135°02'101 6.8
2017-Dec-16 08:06N 34°37' E 136°54'211.9
2017-Dec-16 07:58N 34°38' E 136°53'511.4
2017-Dec-16 07:30N 34°42' E 136°49'611.6
2017-Dec-16 07:00N 34°47' E 136°46'611.3
2017-Dec-16 06:30N 34°53' E 136°46'611.1
2017-Dec-16 06:00N 34°58' E 136°48'611.2
2017-Dec-16 05:30N 35°03' E 136°52'1 1.3
2017-Dec-16 04:58N 35°03' E 136°53'0 0.0
2017-Dec-16 04:28N 35°03' E 136°53'0 0.0
2017-Dec-16 03:58N 35°03' E 136°53'0 0.0
2017-Dec-16 03:28N 35°03' E 136°53'0 0.0
2017-Dec-16 02:58N 35°03' E 136°53'0 0.0
2017-Dec-16 02:28N 35°03' E 136°53'0 0.0
2017-Dec-16 01:58N 35°03' E 136°53'0 0.0
2017-Dec-16 01:28N 35°03' E 136°53'0 0.0
2017-Dec-16 00:58N 35°03' E 136°53'0 0.0
2017-Dec-16 00:28N 35°03' E 136°53'0 0.0
2017-Dec-15 23:58N 35°03' E 136°53'0 0.0
2017-Dec-15 23:28N 35°03' E 136°53'0 0.0
2017-Dec-15 23:00N 35°03' E 136°53'2 4.7
2017-Dec-15 22:30N 35°01' E 136°51'0 0.8
2017-Dec-15 22:00N 35°01' E 136°51'0 0.0
2017-Dec-15 21:30N 35°01' E 136°51'0 0.0
2017-Dec-15 21:00N 35°01' E 136°51'0 0.0
2017-Dec-15 20:30N 35°01' E 136°51'0 0.0
2017-Dec-15 20:00N 35°01' E 136°51'0 0.0
2017-Dec-15 19:30N 35°01' E 136°51'0 0.3
2017-Dec-15 19:00N 35°01' E 136°51'5 9.9
2017-Dec-15 18:30N 34°57' E 136°47'510.2
2017-Dec-15 18:00N 34°52' E 136°47'510.6
2017-Dec-15 17:29N 34°46' E 136°49'510.8
2017-Dec-15 17:00N 34°42' E 136°52'104 7.2
2017-Dec-15 02:29N 33°56' E 134°58'1711.4
2017-Dec-15 01:00N 34°08' E 134°45'611.9
2017-Dec-15 00:30N 34°13' E 134°40'31 2.1
2017-Dec-14 09:47N 34°43' E 134°48'2 7.0
2017-Dec-14 09:30N 34°41' E 134°49'2 4.1
2017-Dec-14 08:59N 34°43' E 134°51'0 0.0
2017-Dec-14 08:23N 34°43' E 134°51'0 0.0
2017-Dec-14 07:59N 34°43' E 134°51'0 0.0
2017-Dec-14 07:29N 34°43' E 134°51'0 0.0
2017-Dec-14 06:59N 34°43' E 134°51'0 0.0
2017-Dec-14 06:29N 34°43' E 134°51'0 0.0
2017-Dec-14 05:59N 34°43' E 134°51'0 0.0
2017-Dec-14 05:23N 34°43' E 134°51'0 0.0
2017-Dec-14 04:59N 34°43' E 134°51'0 0.0
2017-Dec-14 04:29N 34°43' E 134°51'0 0.0
2017-Dec-14 03:59N 34°43' E 134°51'0 0.0
2017-Dec-14 03:23N 34°43' E 134°51'0 0.0
2017-Dec-14 02:59N 34°43' E 134°51'0 0.0
2017-Dec-14 01:41N 34°43' E 134°51'0 0.0
2017-Dec-14 01:23N 34°43' E 134°51'0 0.0
2017-Dec-14 00:59N 34°43' E 134°51'0 0.0
2017-Dec-14 00:11N 34°43' E 134°51'0 0.0
2017-Dec-13 23:59N 34°43' E 134°51'0 0.0
2017-Dec-13 23:29N 34°43' E 134°51'0 0.0
2017-Dec-13 22:53N 34°43' E 134°51'0 0.0
2017-Dec-13 22:29N 34°43' E 134°51'0 0.0
2017-Dec-13 22:00N 34°43' E 134°51'2 3.1
2017-Dec-13 21:30N 34°42' E 134°50'611.4
2017-Dec-13 21:00N 34°37' E 134°54'713.4
2017-Dec-13 20:30N 34°37' E 135°02'510.6
2017-Dec-13 20:01N 34°32' E 135°05'611.8
2017-Dec-13 19:31N 34°26' E 135°03'611.7
2017-Dec-13 19:00N 34°20' E 135°01'611.5
2017-Dec-13 18:30N 34°15' E 134°59'510.7
2017-Dec-13 18:00N 34°10' E 135°00'510.8
2017-Dec-13 17:31N 34°04' E 135°01'610.8
2017-Dec-13 17:00N 33°59' E 135°02'114 7.8
2017-Dec-13 02:26N 34°34' E 137°12'64 9.1
2017-Dec-12 19:26N 34°35' E 138°30'3 6.6
2017-Dec-12 18:59N 34°35' E 138°33'3 5.0
2017-Dec-12 18:18N 34°34' E 138°38'2 4.9
2017-Dec-12 17:59N 34°34' E 138°39'2 3.6
2017-Dec-12 17:30N 34°34' E 138°41'6 4.3
2017-Dec-12 16:05N 34°35' E 138°49'1 4.8
2017-Dec-12 15:58N 34°35' E 138°49'3 4.9
2017-Dec-12 15:20N 34°35' E 138°53'2 7.3
2017-Dec-12 14:59N 34°36' E 138°56'910.0
2017-Dec-12 14:03N 34°43' E 139°03'010.7
2017-Dec-12 14:00N 34°44' E 139°04'610.4
2017-Dec-12 13:27N 34°48' E 139°08'1010.0
2017-Dec-12 12:28N 34°56' E 139°16'510.8
2017-Dec-12 12:00N 34°58' E 139°21'810.2
2017-Dec-12 11:11N 35°02' E 139°30'810.9
2017-Dec-12 10:24N 35°06' E 139°39'611.0
2017-Dec-12 09:51N 35°11' E 139°44'411.2
2017-Dec-12 09:29N 35°14' E 139°46'511.2
2017-Dec-12 09:00N 35°19' E 139°43'611.2
2017-Dec-12 08:31N 35°24' E 139°43'612.1
2017-Dec-12 08:00N 35°28' E 139°49'712.0
2017-Dec-12 07:27N 35°33' E 139°55'4 8.9
2017-Dec-12 07:01N 35°36' E 139°57'0 0.2
2017-Dec-12 06:30N 35°37' E 139°57'0 0.1
2017-Dec-12 06:00N 35°37' E 139°57'0 0.1
2017-Dec-12 05:30N 35°37' E 139°57'0 0.0
2017-Dec-12 05:00N 35°37' E 139°57'0 0.0
2017-Dec-12 04:29N 35°37' E 139°57'0 0.0
2017-Dec-12 03:52N 35°36' E 139°57'0 0.0
2017-Dec-12 03:22N 35°36' E 139°57'0 0.0
2017-Dec-12 03:00N 35°36' E 139°57'0 0.0
2017-Dec-12 02:16N 35°36' E 139°57'0 0.0
2017-Dec-12 01:57N 35°36' E 139°57'0 0.0
2017-Dec-12 01:28N 35°36' E 139°57'0 0.0
2017-Dec-12 00:51N 35°36' E 139°57'0 0.0
2017-Dec-12 00:30N 35°36' E 139°57'0 0.0
2017-Dec-11 23:59N 35°36' E 139°57'0 0.0
2017-Dec-11 23:30N 35°36' E 139°57'0 0.0
2017-Dec-11 23:00N 35°37' E 139°57'0 0.0
2017-Dec-11 22:30N 35°37' E 139°57'0 0.0
2017-Dec-11 22:01N 35°37' E 139°57'0 0.0
2017-Dec-11 21:30N 35°37' E 139°57'0 0.0
2017-Dec-11 20:45N 35°37' E 139°57'0 0.0
2017-Dec-11 20:30N 35°37' E 139°57'0 0.0
2017-Dec-11 19:59N 35°36' E 139°57'0 0.0
2017-Dec-11 19:25N 35°37' E 139°57'0 0.0
2017-Dec-11 19:00N 35°37' E 139°57'0 0.0
2017-Dec-11 18:30N 35°37' E 139°57'0 0.0
2017-Dec-11 17:57N 35°36' E 139°57'0 0.0
2017-Dec-11 17:30N 35°36' E 139°57'0 0.0
2017-Dec-11 16:55N 35°36' E 139°57'0 0.0
2017-Dec-11 16:30N 35°36' E 139°57'0 0.0
2017-Dec-11 16:00N 35°36' E 139°57'0 0.0
2017-Dec-11 15:30N 35°36' E 139°57'0 0.0
2017-Dec-11 14:55N 35°37' E 139°57'0 0.0
2017-Dec-11 14:30N 35°37' E 139°57'0 0.0
2017-Dec-11 14:01N 35°37' E 139°57'0 0.0
2017-Dec-11 13:30N 35°37' E 139°57'0 0.0
2017-Dec-11 12:51N 35°37' E 139°57'0 0.0
2017-Dec-11 12:27N 35°37' E 139°57'0 0.0
2017-Dec-11 11:57N 35°37' E 139°57'0 0.0
2017-Dec-11 11:28N 35°37' E 139°57'0 0.0
2017-Dec-11 10:56N 35°37' E 139°57'0 0.0
2017-Dec-11 10:30N 35°37' E 139°57'0 0.0
2017-Dec-11 10:00N 35°37' E 139°57'0 0.0
2017-Dec-11 09:30N 35°37' E 139°57'0 0.0
2017-Dec-11 08:59N 35°37' E 139°57'0 0.0
2017-Dec-11 08:30N 35°37' E 139°57'0 0.0
2017-Dec-11 07:57N 35°37' E 139°57'4 0.4
2017-Dec-10 22:07N 35°41' E 139°58'1 1.6
2017-Dec-10 21:37N 35°40' E 139°57'1 8.8
2017-Dec-10 21:29N 35°39' E 139°58'2 2.9
2017-Dec-10 20:57N 35°37' E 139°58'1 2.3
2017-Dec-10 20:27N 35°36' E 139°57'2 5.1
2017-Dec-10 20:00N 35°34' E 139°56'510.8
2017-Dec-10 19:30N 35°30' E 139°53'510.7
2017-Dec-10 19:00N 35°26' E 139°48'511.0
2017-Dec-10 18:30N 35°21' E 139°45'5 9.7
2017-Dec-10 18:00N 35°16' E 139°46'510.2
2017-Dec-10 17:30N 35°11' E 139°47'611.2
2017-Dec-10 17:00N 35°06' E 139°45'611.2
2017-Dec-10 16:30N 35°02' E 139°40'611.9
2017-Dec-10 16:00N 34°59' E 139°34'1013.3
2017-Dec-10 15:14N 34°53' E 139°24'313.0
2017-Dec-10 14:59N 34°51' E 139°21'612.7
2017-Dec-10 14:29N 34°47' E 139°15'811.6
2017-Dec-10 13:48N 34°42' E 139°07'310.4
2017-Dec-10 13:31N 34°40' E 139°04'610.7
2017-Dec-10 12:59N 34°36' E 138°59'611.9
2017-Dec-10 12:30N 34°35' E 138°53'711.6
2017-Dec-10 11:55N 34°34' E 138°45'511.3
2017-Dec-10 11:30N 34°34' E 138°39'711.7
2017-Dec-10 10:55N 34°33' E 138°30'511.7
2017-Dec-10 10:29N 34°34' E 138°24'611.3
2017-Dec-10 10:00N 34°34' E 138°18'167 9.4
2017-Dec-09 16:12N 33°53' E 135°02'211.2
2017-Dec-09 16:01N 33°55' E 135°01'611.1
2017-Dec-09 15:30N 34°01' E 134°60'511.1
2017-Dec-09 15:01N 34°06' E 134°59'611.4
2017-Dec-09 14:30N 34°12' E 134°58'611.3
2017-Dec-09 14:00N 34°18' E 134°59'511.0
2017-Dec-09 13:31N 34°23' E 135°00'611.5
2017-Dec-09 13:00N 34°29' E 135°02'511.0
2017-Dec-09 12:31N 34°34' E 135°04'510.9
2017-Dec-09 12:00N 34°37' E 134°58'611.3
2017-Dec-09 11:30N 34°39' E 134°52'510.5
2017-Dec-09 11:00N 34°43' E 134°48'0 0.0
2017-Dec-08 21:40N 34°43' E 134°49'1 4.9
2017-Dec-08 21:23N 34°42' E 134°48'2 5.9
2017-Dec-08 21:00N 34°43' E 134°51'0 0.0
2017-Dec-08 03:12N 34°43' E 134°51'0 0.7
2017-Dec-08 03:00N 34°43' E 134°51'3 6.2
2017-Dec-08 02:30N 34°40' E 134°49'612.4
2017-Dec-08 02:00N 34°37' E 134°56'713.9
2017-Dec-08 01:30N 34°35' E 135°04'612.2
2017-Dec-08 01:00N 34°29' E 135°04'612.4
2017-Dec-08 00:31N 34°24' E 135°02'612.6
2017-Dec-08 00:00N 34°18' E 134°60'612.1
2017-Dec-07 23:30N 34°11' E 135°00'611.7
2017-Dec-07 23:00N 34°06' E 135°01'611.4
2017-Dec-07 22:30N 33°60' E 135°02'103 8.1
2017-Dec-07 09:46N 34°34' E 136°59'511.6
2017-Dec-07 09:21N 34°37' E 136°55'411.7
2017-Dec-07 09:00N 34°40' E 136°51'611.8
2017-Dec-07 08:30N 34°45' E 136°47'611.7
2017-Dec-07 08:00N 34°50' E 136°46'611.6
2017-Dec-07 07:30N 34°56' E 136°46'612.0
2017-Dec-07 07:00N 35°01' E 136°51'3 5.2
2017-Dec-07 06:28N 35°04' E 136°52'  
Track history (hours):
 
Tides and Currents Weather Stations Pressure Air Temp Water Temp Dewpoint Dewpoint Depression Visibility Wind Speed Wind Dir Waves Ship Positions

Tatsuharu Maru

Last reported at 2017-Dec-17 06:14 UTC. Time now 2017-Dec-17 17:46 UTC.
Position N 34°43' E 134°49'.

Length 75 m; draft 4.2 m.

Type: Cargo ship. MMSI: 431007656.

Date/timePositionNaut miles runAvg speedWind from/ knotsBaromVisibWave heightAir tempDewpointWater temp
2017-Dec-17 06:14N 34°43' E 134°49'2 8.4
2017-Dec-17 06:00N 34°41' E 134°49'2 2.8
2017-Dec-17 05:25N 34°42' E 134°50'0 0.0
2017-Dec-17 04:55N 34°42' E 134°50'0 0.0
2017-Dec-17 04:28N 34°42' E 134°50'1 1.3
2017-Dec-17 04:00N 34°42' E 134°50'4 8.2
2017-Dec-17 03:30N 34°38' E 134°53'4 8.4
2017-Dec-17 03:00N 34°38' E 134°58'5 9.9
2017-Dec-17 02:30N 34°36' E 135°03'5 9.6
2017-Dec-17 02:00N 34°31' E 135°04'611.3
2017-Dec-17 01:30N 34°26' E 135°02'611.5
2017-Dec-17 01:00N 34°20' E 135°00'611.4
2017-Dec-17 00:30N 34°15' E 134°60'511.0
2017-Dec-17 00:00N 34°09' E 135°01'510.0
2017-Dec-16 23:30N 34°04' E 135°01'5 9.7
2017-Dec-16 22:59N 33°59' E 135°02'101 6.8
2017-Dec-16 08:06N 34°37' E 136°54'211.9
2017-Dec-16 07:58N 34°38' E 136°53'511.4
2017-Dec-16 07:30N 34°42' E 136°49'611.6
2017-Dec-16 07:00N 34°47' E 136°46'611.3
2017-Dec-16 06:30N 34°53' E 136°46'611.1
2017-Dec-16 06:00N 34°58' E 136°48'611.2
2017-Dec-16 05:30N 35°03' E 136°52'1 1.3
2017-Dec-16 04:58N 35°03' E 136°53'0 0.0
2017-Dec-16 04:28N 35°03' E 136°53'0 0.0
2017-Dec-16 03:58N 35°03' E 136°53'0 0.0
2017-Dec-16 03:28N 35°03' E 136°53'0 0.0
2017-Dec-16 02:58N 35°03' E 136°53'0 0.0
2017-Dec-16 02:28N 35°03' E 136°53'0 0.0
2017-Dec-16 01:58N 35°03' E 136°53'0 0.0
2017-Dec-16 01:28N 35°03' E 136°53'0 0.0
2017-Dec-16 00:58N 35°03' E 136°53'0 0.0
2017-Dec-16 00:28N 35°03' E 136°53'0 0.0
2017-Dec-15 23:58N 35°03' E 136°53'0 0.0
2017-Dec-15 23:28N 35°03' E 136°53'0 0.0
2017-Dec-15 23:00N 35°03' E 136°53'2 4.7
2017-Dec-15 22:30N 35°01' E 136°51'0 0.8
2017-Dec-15 22:00N 35°01' E 136°51'0 0.0
2017-Dec-15 21:30N 35°01' E 136°51'0 0.0
2017-Dec-15 21:00N 35°01' E 136°51'0 0.0
2017-Dec-15 20:30N 35°01' E 136°51'0 0.0
2017-Dec-15 20:00N 35°01' E 136°51'0 0.0
2017-Dec-15 19:30N 35°01' E 136°51'0 0.3
2017-Dec-15 19:00N 35°01' E 136°51'5 9.9
2017-Dec-15 18:30N 34°57' E 136°47'510.2
2017-Dec-15 18:00N 34°52' E 136°47'510.6
2017-Dec-15 17:29N 34°46' E 136°49'510.8
2017-Dec-15 17:00N 34°42' E 136°52'104 7.2
2017-Dec-15 02:29N 33°56' E 134°58'1711.4
2017-Dec-15 01:00N 34°08' E 134°45'611.9
2017-Dec-15 00:30N 34°13' E 134°40'31 2.1
2017-Dec-14 09:47N 34°43' E 134°48'2 7.0
2017-Dec-14 09:30N 34°41' E 134°49'2 4.1
2017-Dec-14 08:59N 34°43' E 134°51'0 0.0
2017-Dec-14 08:23N 34°43' E 134°51'0 0.0
2017-Dec-14 07:59N 34°43' E 134°51'0 0.0
2017-Dec-14 07:29N 34°43' E 134°51'0 0.0
2017-Dec-14 06:59N 34°43' E 134°51'0 0.0
2017-Dec-14 06:29N 34°43' E 134°51'0 0.0
2017-Dec-14 05:59N 34°43' E 134°51'0 0.0
2017-Dec-14 05:23N 34°43' E 134°51'0 0.0
2017-Dec-14 04:59N 34°43' E 134°51'0 0.0
2017-Dec-14 04:29N 34°43' E 134°51'0 0.0
2017-Dec-14 03:59N 34°43' E 134°51'0 0.0
2017-Dec-14 03:23N 34°43' E 134°51'0 0.0
2017-Dec-14 02:59N 34°43' E 134°51'0 0.0
2017-Dec-14 01:41N 34°43' E 134°51'0 0.0
2017-Dec-14 01:23N 34°43' E 134°51'0 0.0
2017-Dec-14 00:59N 34°43' E 134°51'0 0.0
2017-Dec-14 00:11N 34°43' E 134°51'0 0.0
2017-Dec-13 23:59N 34°43' E 134°51'0 0.0
2017-Dec-13 23:29N 34°43' E 134°51'0 0.0
2017-Dec-13 22:53N 34°43' E 134°51'0 0.0
2017-Dec-13 22:29N 34°43' E 134°51'0 0.0
2017-Dec-13 22:00N 34°43' E 134°51'2 3.1
2017-Dec-13 21:30N 34°42' E 134°50'611.4
2017-Dec-13 21:00N 34°37' E 134°54'713.4
2017-Dec-13 20:30N 34°37' E 135°02'510.6
2017-Dec-13 20:01N 34°32' E 135°05'611.8
2017-Dec-13 19:31N 34°26' E 135°03'611.7
2017-Dec-13 19:00N 34°20' E 135°01'611.5
2017-Dec-13 18:30N 34°15' E 134°59'510.7
2017-Dec-13 18:00N 34°10' E 135°00'510.8
2017-Dec-13 17:31N 34°04' E 135°01'610.8
2017-Dec-13 17:00N 33°59' E 135°02'114 7.8
2017-Dec-13 02:26N 34°34' E 137°12'64 9.1
2017-Dec-12 19:26N 34°35' E 138°30'3 6.6
2017-Dec-12 18:59N 34°35' E 138°33'3 5.0
2017-Dec-12 18:18N 34°34' E 138°38'2 4.9
2017-Dec-12 17:59N 34°34' E 138°39'2 3.6
2017-Dec-12 17:30N 34°34' E 138°41'6 4.3
2017-Dec-12 16:05N 34°35' E 138°49'1 4.8
2017-Dec-12 15:58N 34°35' E 138°49'3 4.9
2017-Dec-12 15:20N 34°35' E 138°53'2 7.3
2017-Dec-12 14:59N 34°36' E 138°56'910.0
2017-Dec-12 14:03N 34°43' E 139°03'010.7
2017-Dec-12 14:00N 34°44' E 139°04'610.4
2017-Dec-12 13:27N 34°48' E 139°08'1010.0
2017-Dec-12 12:28N 34°56' E 139°16'510.8
2017-Dec-12 12:00N 34°58' E 139°21'810.2
2017-Dec-12 11:11N 35°02' E 139°30'810.9
2017-Dec-12 10:24N 35°06' E 139°39'611.0
2017-Dec-12 09:51N 35°11' E 139°44'411.2
2017-Dec-12 09:29N 35°14' E 139°46'511.2
2017-Dec-12 09:00N 35°19' E 139°43'611.2
2017-Dec-12 08:31N 35°24' E 139°43'612.1
2017-Dec-12 08:00N 35°28' E 139°49'712.0
2017-Dec-12 07:27N 35°33' E 139°55'4 8.9
2017-Dec-12 07:01N 35°36' E 139°57'0 0.2
2017-Dec-12 06:30N 35°37' E 139°57'0 0.1
2017-Dec-12 06:00N 35°37' E 139°57'0 0.1
2017-Dec-12 05:30N 35°37' E 139°57'0 0.0
2017-Dec-12 05:00N 35°37' E 139°57'0 0.0
2017-Dec-12 04:29N 35°37' E 139°57'0 0.0
2017-Dec-12 03:52N 35°36' E 139°57'0 0.0
2017-Dec-12 03:22N 35°36' E 139°57'0 0.0
2017-Dec-12 03:00N 35°36' E 139°57'0 0.0
2017-Dec-12 02:16N 35°36' E 139°57'0 0.0
2017-Dec-12 01:57N 35°36' E 139°57'0 0.0
2017-Dec-12 01:28N 35°36' E 139°57'0 0.0
2017-Dec-12 00:51N 35°36' E 139°57'0 0.0
2017-Dec-12 00:30N 35°36' E 139°57'0 0.0
2017-Dec-11 23:59N 35°36' E 139°57'0 0.0
2017-Dec-11 23:30N 35°36' E 139°57'0 0.0
2017-Dec-11 23:00N 35°37' E 139°57'0 0.0
2017-Dec-11 22:30N 35°37' E 139°57'0 0.0
2017-Dec-11 22:01N 35°37' E 139°57'0 0.0
2017-Dec-11 21:30N 35°37' E 139°57'0 0.0
2017-Dec-11 20:45N 35°37' E 139°57'0 0.0
2017-Dec-11 20:30N 35°37' E 139°57'0 0.0
2017-Dec-11 19:59N 35°36' E 139°57'0 0.0
2017-Dec-11 19:25N 35°37' E 139°57'0 0.0
2017-Dec-11 19:00N 35°37' E 139°57'0 0.0
2017-Dec-11 18:30N 35°37' E 139°57'0 0.0
2017-Dec-11 17:57N 35°36' E 139°57'0 0.0
2017-Dec-11 17:30N 35°36' E 139°57'0 0.0
2017-Dec-11 16:55N 35°36' E 139°57'0 0.0
2017-Dec-11 16:30N 35°36' E 139°57'0 0.0
2017-Dec-11 16:00N 35°36' E 139°57'0 0.0
2017-Dec-11 15:30N 35°36' E 139°57'0 0.0
2017-Dec-11 14:55N 35°37' E 139°57'0 0.0
2017-Dec-11 14:30N 35°37' E 139°57'0 0.0
2017-Dec-11 14:01N 35°37' E 139°57'0 0.0
2017-Dec-11 13:30N 35°37' E 139°57'0 0.0
2017-Dec-11 12:51N 35°37' E 139°57'0 0.0
2017-Dec-11 12:27N 35°37' E 139°57'0 0.0
2017-Dec-11 11:57N 35°37' E 139°57'0 0.0
2017-Dec-11 11:28N 35°37' E 139°57'0 0.0
2017-Dec-11 10:56N 35°37' E 139°57'0 0.0
2017-Dec-11 10:30N 35°37' E 139°57'0 0.0
2017-Dec-11 10:00N 35°37' E 139°57'0 0.0
2017-Dec-11 09:30N 35°37' E 139°57'0 0.0
2017-Dec-11 08:59N 35°37' E 139°57'0 0.0
2017-Dec-11 08:30N 35°37' E 139°57'0 0.0
2017-Dec-11 07:57N 35°37' E 139°57'4 0.4
2017-Dec-10 22:07N 35°41' E 139°58'1 1.6
2017-Dec-10 21:37N 35°40' E 139°57'1 8.8
2017-Dec-10 21:29N 35°39' E 139°58'2 2.9
2017-Dec-10 20:57N 35°37' E 139°58'1 2.3
2017-Dec-10 20:27N 35°36' E 139°57'2 5.1
2017-Dec-10 20:00N 35°34' E 139°56'510.8
2017-Dec-10 19:30N 35°30' E 139°53'510.7
2017-Dec-10 19:00N 35°26' E 139°48'511.0
2017-Dec-10 18:30N 35°21' E 139°45'5 9.7
2017-Dec-10 18:00N 35°16' E 139°46'510.2
2017-Dec-10 17:30N 35°11' E 139°47'611.2
2017-Dec-10 17:00N 35°06' E 139°45'611.2
2017-Dec-10 16:30N 35°02' E 139°40'611.9
2017-Dec-10 16:00N 34°59' E 139°34'1013.3
2017-Dec-10 15:14N 34°53' E 139°24'313.0
2017-Dec-10 14:59N 34°51' E 139°21'612.7
2017-Dec-10 14:29N 34°47' E 139°15'811.6
2017-Dec-10 13:48N 34°42' E 139°07'310.4
2017-Dec-10 13:31N 34°40' E 139°04'610.7
2017-Dec-10 12:59N 34°36' E 138°59'611.9
2017-Dec-10 12:30N 34°35' E 138°53'711.6
2017-Dec-10 11:55N 34°34' E 138°45'511.3
2017-Dec-10 11:30N 34°34' E 138°39'711.7
2017-Dec-10 10:55N 34°33' E 138°30'511.7
2017-Dec-10 10:29N 34°34' E 138°24'611.3
2017-Dec-10 10:00N 34°34' E 138°18'167 9.4
2017-Dec-09 16:12N 33°53' E 135°02'211.2
2017-Dec-09 16:01N 33°55' E 135°01'611.1
2017-Dec-09 15:30N 34°01' E 134°60'511.1
2017-Dec-09 15:01N 34°06' E 134°59'611.4
2017-Dec-09 14:30N 34°12' E 134°58'611.3
2017-Dec-09 14:00N 34°18' E 134°59'511.0
2017-Dec-09 13:31N 34°23' E 135°00'611.5
2017-Dec-09 13:00N 34°29' E 135°02'511.0
2017-Dec-09 12:31N 34°34' E 135°04'510.9
2017-Dec-09 12:00N 34°37' E 134°58'611.3
2017-Dec-09 11:30N 34°39' E 134°52'510.5
2017-Dec-09 11:00N 34°43' E 134°48'0 0.0
2017-Dec-08 21:40N 34°43' E 134°49'1 4.9
2017-Dec-08 21:23N 34°42' E 134°48'2 5.9
2017-Dec-08 21:00N 34°43' E 134°51'0 0.0
2017-Dec-08 03:12N 34°43' E 134°51'0 0.7
2017-Dec-08 03:00N 34°43' E 134°51'3 6.2
2017-Dec-08 02:30N 34°40' E 134°49'612.4
2017-Dec-08 02:00N 34°37' E 134°56'713.9
2017-Dec-08 01:30N 34°35' E 135°04'612.2
2017-Dec-08 01:00N 34°29' E 135°04'612.4
2017-Dec-08 00:31N 34°24' E 135°02'612.6
2017-Dec-08 00:00N 34°18' E 134°60'612.1
2017-Dec-07 23:30N 34°11' E 135°00'611.7
2017-Dec-07 23:00N 34°06' E 135°01'611.4
2017-Dec-07 22:30N 33°60' E 135°02'103 8.1
2017-Dec-07 09:46N 34°34' E 136°59'511.6
2017-Dec-07 09:21N 34°37' E 136°55'411.7
2017-Dec-07 09:00N 34°40' E 136°51'611.8
2017-Dec-07 08:30N 34°45' E 136°47'611.7
2017-Dec-07 08:00N 34°50' E 136°46'611.6
2017-Dec-07 07:30N 34°56' E 136°46'612.0
2017-Dec-07 07:00N 35°01' E 136°51'3 5.2
2017-Dec-07 06:28N 35°04' E 136°52'  

Dump ship's entire track history